createdAt,value
2019-04-21T00:00:45.676Z,0.00
2019-04-21T00:01:48.778Z,0.00
2019-04-21T00:02:47.619Z,0.00
2019-04-21T00:03:51.288Z,0.00
2019-04-21T00:04:56.896Z,0.00
2019-04-21T00:06:03.037Z,0.00
2019-04-21T00:07:05.817Z,0.00
2019-04-21T00:08:15.095Z,0.00
2019-04-21T00:09:11.496Z,0.00
2019-04-21T00:10:07.662Z,0.00
2019-04-21T00:11:09.747Z,0.00
2019-04-21T00:12:01.482Z,0.00
2019-04-21T00:12:57.382Z,0.00
2019-04-21T00:13:56.392Z,0.00
2019-04-21T00:14:54.845Z,0.00
2019-04-21T00:15:53.457Z,0.00
2019-04-21T00:16:53.911Z,0.00
2019-04-21T00:17:49.876Z,0.00
2019-04-21T00:18:53.507Z,0.00
2019-04-21T00:19:45.859Z,0.00
2019-04-21T00:20:49.694Z,0.00
2019-04-21T00:21:51.145Z,0.00
2019-04-21T00:22:58.585Z,0.00
2019-04-21T00:24:01.815Z,0.00
2019-04-21T00:24:56.913Z,0.00
2019-04-21T00:25:57.632Z,0.00
2019-04-21T00:27:09.691Z,0.00
2019-04-21T00:28:04.771Z,0.00
2019-04-21T00:29:09.180Z,0.00
2019-04-21T00:30:03.331Z,0.00
2019-04-21T00:31:00.570Z,0.00
2019-04-21T00:32:00.404Z,0.00
2019-04-21T00:32:54.107Z,0.00
2019-04-21T00:33:47.749Z,0.00
2019-04-21T00:34:53.517Z,0.00
2019-04-21T00:35:54.286Z,0.00
2019-04-21T00:36:56.105Z,0.00
2019-04-21T00:38:00.615Z,0.00
2019-04-21T00:39:17.085Z,0.00
2019-04-21T00:40:06.606Z,0.00
2019-04-21T00:41:08.876Z,0.00
2019-04-21T00:42:05.423Z,0.00
2019-04-21T00:43:03.560Z,0.00
2019-04-21T00:43:59.823Z,0.00
2019-04-21T00:44:58.583Z,0.00
2019-04-21T00:45:55.552Z,0.00
2019-04-21T00:46:55.801Z,0.00
2019-04-21T00:48:04.040Z,0.00
2019-04-21T00:49:03.127Z,0.00
2019-04-21T00:50:07.489Z,0.00
2019-04-21T00:51:18.420Z,0.00
2019-04-21T00:52:14.470Z,0.00
2019-04-21T00:53:04.657Z,0.00
2019-04-21T00:54:09.797Z,0.00
2019-04-21T00:55:14.252Z,0.00
2019-04-21T00:56:08.498Z,0.00
2019-04-21T00:57:10.591Z,0.00
2019-04-21T00:58:14.772Z,0.00
2019-04-21T00:59:11.731Z,0.00
2019-04-21T01:00:10.186Z,0.00
2019-04-21T01:01:01.947Z,0.00
2019-04-21T01:02:00.857Z,0.00
2019-04-21T01:03:12.636Z,0.00
2019-04-21T01:04:02.267Z,0.00
2019-04-21T01:05:10.845Z,0.00
2019-04-21T01:06:03.667Z,0.00
2019-04-21T01:07:07.268Z,0.00
2019-04-21T01:08:08.501Z,0.00
2019-04-21T01:09:06.360Z,0.00
2019-04-21T01:10:02.366Z,0.00
2019-04-21T01:10:56.955Z,0.00
2019-04-21T01:12:05.152Z,0.00
2019-04-21T01:13:14.374Z,0.00
2019-04-21T01:14:05.516Z,0.00
2019-04-21T01:15:11.023Z,0.00
2019-04-21T01:16:07.239Z,0.00
2019-04-21T01:17:11.127Z,0.00
2019-04-21T01:18:04.718Z,0.00
2019-04-21T01:19:05.121Z,0.00
2019-04-21T01:19:57.465Z,0.00
2019-04-21T01:20:43.433Z,0.00
2019-04-21T01:21:42.396Z,0.00
2019-04-21T01:22:42.382Z,0.00
2019-04-21T01:23:42.442Z,0.00
2019-04-21T01:24:46.797Z,0.00
2019-04-21T01:25:55.427Z,0.00
2019-04-21T01:26:55.641Z,0.00
2019-04-21T01:27:59.459Z,0.00
2019-04-21T01:29:01.280Z,0.00
2019-04-21T01:30:08.269Z,0.00
2019-04-21T01:31:07.491Z,0.00
2019-04-21T01:32:13.189Z,0.00
2019-04-21T01:33:08.188Z,0.00
2019-04-21T01:34:04.719Z,0.00
2019-04-21T01:35:06.740Z,0.00
2019-04-21T01:36:02.980Z,0.00
2019-04-21T01:36:59.896Z,0.00
2019-04-21T01:38:01.897Z,0.00
2019-04-21T01:39:11.936Z,0.00
2019-04-21T01:40:14.018Z,0.00
2019-04-21T01:41:07.063Z,0.00
2019-04-21T01:42:03.761Z,0.00
2019-04-21T01:43:04.796Z,0.00
2019-04-21T01:44:01.569Z,0.00
2019-04-21T01:45:05.528Z,0.00
2019-04-21T01:46:00.667Z,0.00
2019-04-21T01:46:58.237Z,0.00
2019-04-21T01:48:01.209Z,0.00
2019-04-21T01:49:53.310Z,0.00
2019-04-21T01:51:01.529Z,0.00
2019-04-21T01:52:15.174Z,0.00
2019-04-21T01:53:03.956Z,0.00
2019-04-21T01:54:07.665Z,0.00
2019-04-21T01:55:06.020Z,0.00
2019-04-21T01:56:04.817Z,0.00
2019-04-21T01:57:02.034Z,0.00
2019-04-21T01:57:58.962Z,0.00
2019-04-21T01:58:51.764Z,0.00
2019-04-21T01:59:54.895Z,0.00
2019-04-21T02:00:58.247Z,0.00
2019-04-21T02:02:05.135Z,0.00
2019-04-21T02:03:17.605Z,0.00
2019-04-21T02:03:59.667Z,0.00
2019-04-21T02:05:10.296Z,0.00
2019-04-21T02:05:59.970Z,0.00
2019-04-21T02:07:02.844Z,0.00
2019-04-21T02:08:00.774Z,0.00
2019-04-21T02:09:02.121Z,0.00
2019-04-21T02:10:05.125Z,0.00
2019-04-21T02:11:07.844Z,0.00
2019-04-21T02:12:06.843Z,0.00
2019-04-21T02:13:07.119Z,0.00
2019-04-21T02:14:09.960Z,0.00
2019-04-21T02:15:07.731Z,0.00
2019-04-21T02:16:08.809Z,0.00
2019-04-21T02:17:05.575Z,0.00
2019-04-21T02:18:07.024Z,0.00
2019-04-21T02:18:58.927Z,0.00
2019-04-21T02:19:55.237Z,0.00
2019-04-21T02:20:55.333Z,0.00
2019-04-21T02:21:54.300Z,0.00
2019-04-21T02:23:31.470Z,0.00
2019-04-21T02:25:08.621Z,0.00
2019-04-21T02:26:08.020Z,0.00
2019-04-21T02:27:09.881Z,0.00
2019-04-21T02:28:03.754Z,0.00
2019-04-21T02:29:08.546Z,0.00
2019-04-21T02:30:12.193Z,0.00
2019-04-21T02:31:24.802Z,0.00
2019-04-21T02:32:28.689Z,0.00
2019-04-21T02:33:26.070Z,0.00
2019-04-21T02:34:38.001Z,0.00
2019-04-21T02:35:25.585Z,0.00
2019-04-21T02:37:28.464Z,0.00
2019-04-21T02:40:17.484Z,0.00
2019-04-21T02:41:09.528Z,0.00
2019-04-21T02:42:31.640Z,0.00
2019-04-21T02:45:17.091Z,0.00
2019-04-21T02:46:16.704Z,0.00
2019-04-21T02:47:24.017Z,0.00
2019-04-21T02:48:19.306Z,0.00
2019-04-21T02:49:39.898Z,0.00
2019-04-21T02:50:19.134Z,0.00
2019-04-21T02:51:13.170Z,0.00
2019-04-21T02:53:21.132Z,0.00
2019-04-21T02:54:45.763Z,0.00
2019-04-21T02:55:07.789Z,0.00
2019-04-21T02:56:18.407Z,0.00
2019-04-21T02:57:19.043Z,0.00
2019-04-21T02:58:18.330Z,0.00
2019-04-21T02:59:15.313Z,0.00
2019-04-21T03:00:16.001Z,0.00
2019-04-21T03:01:23.572Z,0.00
2019-04-21T03:02:22.783Z,0.00
2019-04-21T03:03:13.277Z,0.00
2019-04-21T03:04:26.243Z,0.00
2019-04-21T03:06:08.690Z,0.00
2019-04-21T03:08:14.381Z,0.00
2019-04-21T03:09:18.573Z,0.00
2019-04-21T03:11:14.482Z,0.00
2019-04-21T03:13:21.619Z,0.00
2019-04-21T03:14:24.922Z,0.00
2019-04-21T03:15:28.969Z,0.00
2019-04-21T03:16:26.559Z,0.00
2019-04-21T03:17:15.200Z,0.00
2019-04-21T03:18:12.903Z,0.00
2019-04-21T03:19:20.390Z,0.00
2019-04-21T03:23:21.603Z,0.00
2019-04-21T03:24:33.207Z,0.00
2019-04-21T03:25:25.297Z,0.00
2019-04-21T03:27:28.582Z,0.00
2019-04-21T03:28:17.871Z,0.00
2019-04-21T03:29:30.976Z,0.00
2019-04-21T03:30:29.866Z,0.00
2019-04-21T03:31:34.677Z,0.00
2019-04-21T03:35:53.439Z,0.00
2019-04-21T03:37:16.930Z,0.00
2019-04-21T03:38:22.309Z,0.00
2019-04-21T03:39:07.791Z,0.00
2019-04-21T03:41:12.103Z,0.00
2019-04-21T03:42:19.594Z,0.00
2019-04-21T03:43:12.651Z,4.00
2019-04-21T03:44:17.087Z,0.00
2019-04-21T03:45:20.395Z,4.00
2019-04-21T03:46:16.380Z,4.00
2019-04-21T03:47:15.413Z,4.00
2019-04-21T03:48:17.212Z,4.00
2019-04-21T03:49:20.783Z,4.00
2019-04-21T03:50:12.806Z,4.00
2019-04-21T03:51:15.942Z,8.00
2019-04-21T03:52:27.808Z,8.00
2019-04-21T03:53:09.616Z,12.00
2019-04-21T03:54:13.705Z,12.00
2019-04-21T03:57:39.289Z,20.00
2019-04-21T03:59:09.630Z,28.00
2019-04-21T04:00:21.614Z,32.00
2019-04-21T04:02:14.892Z,40.00
2019-04-21T04:04:24.493Z,52.00
2019-04-21T04:05:23.389Z,56.00
2019-04-21T04:07:39.750Z,68.00
2019-04-21T04:08:22.475Z,80.00
2019-04-21T04:12:28.571Z,116.00
2019-04-21T04:13:20.384Z,128.00
2019-04-21T04:15:12.082Z,152.00
2019-04-21T04:18:23.428Z,196.00
2019-04-21T04:19:09.082Z,208.00
2019-04-21T04:20:13.809Z,224.00
2019-04-21T04:22:17.557Z,256.00
2019-04-21T04:23:08.162Z,272.00
2019-04-21T04:24:13.317Z,292.00
2019-04-21T04:25:15.602Z,308.00
2019-04-21T04:26:19.121Z,328.00
2019-04-21T04:27:22.557Z,348.00
2019-04-21T04:28:28.355Z,368.00
2019-04-21T04:29:12.518Z,388.00
2019-04-21T04:30:12.537Z,408.00
2019-04-21T04:31:20.396Z,428.00
2019-04-21T04:32:07.301Z,448.00
2019-04-21T04:33:22.641Z,472.00
2019-04-21T04:34:14.629Z,492.00
2019-04-21T04:35:11.869Z,516.00
2019-04-21T04:37:21.501Z,560.00
2019-04-21T04:38:20.165Z,584.00
2019-04-21T04:39:26.015Z,612.00
2019-04-21T04:40:13.354Z,632.00
2019-04-21T04:41:22.163Z,656.00
2019-04-21T04:43:14.691Z,704.00
2019-04-21T04:44:32.577Z,728.00
2019-04-21T04:45:28.257Z,748.00
2019-04-21T04:46:07.201Z,768.00
2019-04-21T04:47:20.278Z,796.00
2019-04-21T04:49:34.375Z,840.00
2019-04-21T04:49:59.494Z,860.00
2019-04-21T04:51:40.958Z,884.00
2019-04-21T04:52:30.158Z,900.00
2019-04-21T04:53:12.662Z,924.00
2019-04-21T04:54:05.818Z,944.00
2019-04-21T04:55:12.027Z,968.00
2019-04-21T04:56:12.453Z,988.00
2019-04-21T04:57:13.846Z,1008.00
2019-04-21T04:58:07.143Z,1028.00
2019-04-21T04:59:47.747Z,1048.00
2019-04-21T05:00:19.859Z,1072.00
2019-04-21T05:03:15.561Z,1128.00
2019-04-21T05:05:14.079Z,1168.00
2019-04-21T05:06:24.061Z,1188.00
2019-04-21T05:07:13.872Z,1212.00
2019-04-21T05:09:22.930Z,1240.00
2019-04-21T05:10:11.690Z,1260.00
2019-04-21T05:11:23.552Z,1272.00
2019-04-21T05:12:05.958Z,1292.00
2019-04-21T05:13:06.096Z,1308.00
2019-04-21T05:14:21.533Z,1324.00
2019-04-21T05:15:09.555Z,1340.00
2019-04-21T05:16:21.762Z,1360.00
2019-04-21T05:17:19.618Z,1372.00
2019-04-21T05:18:13.589Z,1384.00
2019-04-21T05:19:20.090Z,1400.00
2019-04-21T05:20:11.619Z,1412.00
2019-04-21T05:21:24.182Z,1432.00
2019-04-21T05:22:12.155Z,1444.00
2019-04-21T05:22:59.830Z,1460.00
2019-04-21T05:23:55.887Z,1476.00
2019-04-21T05:25:02.129Z,1492.00
2019-04-21T05:25:54.428Z,1508.00
2019-04-21T05:26:58.394Z,1532.00
2019-04-21T05:27:57.772Z,1536.00
2019-04-21T05:28:53.460Z,1552.00
2019-04-21T05:30:15.299Z,1568.00
2019-04-21T05:31:05.750Z,1576.00
2019-04-21T05:32:04.584Z,1588.00
2019-04-21T05:33:05.581Z,1604.00
2019-04-21T05:34:03.064Z,1616.00
2019-04-21T05:35:02.276Z,1632.00
2019-04-21T05:36:07.667Z,1648.00
2019-04-21T05:37:01.349Z,1660.00
2019-04-21T05:38:03.039Z,1672.00
2019-04-21T05:38:59.648Z,1680.00
2019-04-21T05:39:57.468Z,1692.00
2019-04-21T05:40:56.157Z,1704.00
2019-04-21T05:41:49.670Z,1716.00
2019-04-21T05:42:54.875Z,1728.00
2019-04-21T05:44:07.652Z,1736.00
2019-04-21T05:45:12.743Z,1744.00
2019-04-21T05:46:22.598Z,1752.00
2019-04-21T05:47:15.956Z,1760.00
2019-04-21T05:48:15.906Z,1772.00
2019-04-21T05:49:02.694Z,1776.00
2019-04-21T05:50:01.007Z,1788.00
2019-04-21T05:51:00.162Z,1800.00
2019-04-21T05:52:01.479Z,1820.00
2019-04-21T05:52:54.762Z,1852.00
2019-04-21T05:54:10.839Z,1888.00
2019-04-21T05:55:00.866Z,1940.00
2019-04-21T05:56:05.021Z,1988.00
2019-04-21T05:57:01.103Z,2036.00
2019-04-21T05:58:02.577Z,2080.00
2019-04-21T05:59:02.148Z,2136.00
2019-04-21T05:59:59.149Z,2184.00
2019-04-21T06:01:16.655Z,2224.00
2019-04-21T06:02:14.024Z,2264.00
2019-04-21T06:03:05.671Z,2300.00
2019-04-21T06:04:07.606Z,2332.00
2019-04-21T06:05:15.785Z,2372.00
2019-04-21T06:06:10.398Z,2404.00
2019-04-21T06:07:06.024Z,2420.00
2019-04-21T06:08:00.411Z,2452.00
2019-04-21T06:08:58.403Z,2484.00
2019-04-21T06:10:16.929Z,2508.00
2019-04-21T06:11:02.306Z,2532.00
2019-04-21T06:12:05.881Z,2572.00
2019-04-21T06:13:06.061Z,2608.00
2019-04-21T06:14:21.739Z,2640.00
2019-04-21T06:15:01.023Z,2660.00
2019-04-21T06:16:03.536Z,2680.00
2019-04-21T06:17:04.570Z,2692.00
2019-04-21T06:18:07.919Z,2704.00
2019-04-21T06:19:23.982Z,2712.00
2019-04-21T06:20:00.272Z,2724.00
2019-04-21T06:21:07.226Z,2740.00
2019-04-21T06:22:06.288Z,2740.00
2019-04-21T06:23:04.808Z,2740.00
2019-04-21T06:24:06.881Z,2740.00
2019-04-21T06:25:33.845Z,2740.00
2019-04-21T06:26:18.056Z,2736.00
2019-04-21T06:27:22.720Z,2740.00
2019-04-21T06:28:04.719Z,2744.00
2019-04-21T06:29:04.243Z,2760.00
2019-04-21T06:30:00.163Z,2756.00
2019-04-21T06:31:30.276Z,2756.00
2019-04-21T06:32:21.904Z,2756.00
2019-04-21T06:32:59.438Z,2760.00
2019-04-21T06:34:06.736Z,2756.00
2019-04-21T06:37:07.906Z,2768.00
2019-04-21T06:38:05.703Z,2776.00
2019-04-21T06:39:15.586Z,2780.00
2019-04-21T06:40:16.924Z,2780.00
2019-04-21T06:41:07.469Z,2780.00
2019-04-21T06:41:58.839Z,2784.00
2019-04-21T06:43:16.167Z,2780.00
2019-04-21T06:44:09.461Z,2784.00
2019-04-21T06:45:07.261Z,2788.00
2019-04-21T06:45:58.948Z,2792.00
2019-04-21T06:47:13.900Z,2796.00
2019-04-21T06:48:04.501Z,2808.00
2019-04-21T06:49:02.865Z,2816.00
2019-04-21T06:50:00.467Z,2832.00
2019-04-21T06:51:08.961Z,2840.00
2019-04-21T06:52:07.314Z,2864.00
2019-04-21T06:53:11.945Z,2884.00
2019-04-21T06:54:05.351Z,2900.00
2019-04-21T06:56:04.614Z,2940.00
2019-04-21T06:56:58.461Z,2952.00
2019-04-21T06:57:58.176Z,2968.00
2019-04-21T06:59:01.261Z,2984.00
2019-04-21T07:00:02.895Z,3008.00
2019-04-21T07:01:03.889Z,3032.00
2019-04-21T07:03:08.326Z,3084.00
2019-04-21T07:04:13.364Z,3120.00
2019-04-21T07:05:07.821Z,3156.00
2019-04-21T07:07:00.483Z,3236.00
2019-04-21T07:08:17.036Z,3284.00
2019-04-21T07:09:12.206Z,3332.00
2019-04-21T07:10:09.128Z,3388.00
2019-04-21T07:11:04.017Z,3440.00
2019-04-21T07:11:59.960Z,3492.00
2019-04-21T07:12:57.594Z,3444.00
2019-04-21T07:14:19.377Z,3588.00
2019-04-21T07:15:06.597Z,3628.00
2019-04-21T07:16:04.797Z,3664.00
2019-04-21T07:17:08.104Z,3700.00
2019-04-21T07:18:04.611Z,3732.00
2019-04-21T07:19:07.128Z,3756.00
2019-04-21T07:21:00.188Z,3824.00
2019-04-21T07:22:03.061Z,3852.00
2019-04-21T07:23:05.127Z,3872.00
2019-04-21T07:24:05.596Z,3880.00
2019-04-21T07:25:03.038Z,3896.00
2019-04-21T07:26:04.469Z,3920.00
2019-04-21T07:27:04.205Z,3940.00
2019-04-21T07:28:19.250Z,3960.00
2019-04-21T07:29:07.870Z,3980.00
2019-04-21T07:30:04.960Z,4008.00
2019-04-21T07:31:03.735Z,4024.00
2019-04-21T07:32:04.344Z,4040.00
2019-04-21T07:34:21.662Z,4072.00
2019-04-21T07:35:03.914Z,4092.00
2019-04-21T07:36:05.030Z,4108.00
2019-04-21T07:37:00.937Z,4120.00
2019-04-21T07:37:59.081Z,4136.00
2019-04-21T07:38:56.877Z,4160.00
2019-04-21T07:39:56.016Z,4180.00
2019-04-21T07:40:53.985Z,4188.00
2019-04-21T07:41:53.874Z,4204.00
2019-04-21T07:42:55.689Z,4220.00
2019-04-21T07:43:51.037Z,4236.00
2019-04-21T07:44:52.358Z,4256.00
2019-04-21T07:45:52.473Z,4272.00
2019-04-21T07:46:54.016Z,4292.00
2019-04-21T07:48:08.265Z,4308.00
2019-04-21T07:49:01.632Z,4312.00
2019-04-21T07:50:00.958Z,4328.00
2019-04-21T07:50:57.842Z,4336.00
2019-04-21T07:52:05.651Z,4352.00
2019-04-21T07:54:01.841Z,4384.00
2019-04-21T07:55:12.916Z,4400.00
2019-04-21T07:55:41.107Z,4412.00
2019-04-21T07:56:44.206Z,4424.00
2019-04-21T07:57:55.700Z,4448.00
2019-04-21T07:59:03.842Z,4464.00
2019-04-21T08:02:20.349Z,4496.00
2019-04-21T08:03:05.850Z,4516.00
2019-04-21T08:04:03.929Z,4536.00
2019-04-21T08:05:07.453Z,4568.00
2019-04-21T08:06:03.664Z,4580.00
2019-04-21T08:07:02.807Z,4588.00
2019-04-21T08:09:01.069Z,4604.00
2019-04-21T08:10:00.066Z,4616.00
2019-04-21T08:10:57.062Z,4624.00
2019-04-21T08:11:51.849Z,4636.00
2019-04-21T08:12:58.309Z,4648.00
2019-04-21T08:13:57.954Z,4668.00
2019-04-21T08:15:01.261Z,4684.00
2019-04-21T08:15:57.698Z,4696.00
2019-04-21T08:17:03.084Z,4720.00
2019-04-21T08:18:03.712Z,4724.00
2019-04-21T08:18:59.552Z,4744.00
2019-04-21T08:19:53.649Z,4752.00
2019-04-21T08:21:00.724Z,4760.00
2019-04-21T08:22:08.178Z,4776.00
2019-04-21T08:22:58.918Z,4788.00
2019-04-21T08:23:54.204Z,4800.00
2019-04-21T08:24:59.481Z,4812.00
2019-04-21T08:27:06.270Z,4840.00
2019-04-21T08:27:59.868Z,4852.00
2019-04-21T08:29:04.358Z,4856.00
2019-04-21T08:29:58.284Z,4872.00
2019-04-21T08:31:06.550Z,4868.00
2019-04-21T08:32:03.160Z,4880.00
2019-04-21T08:34:00.713Z,4904.00
2019-04-21T08:35:35.802Z,4916.00
2019-04-21T08:36:11.269Z,4924.00
2019-04-21T08:36:57.232Z,4932.00
2019-04-21T08:37:57.407Z,4940.00
2019-04-21T08:39:01.073Z,4948.00
2019-04-21T08:40:04.962Z,4964.00
2019-04-21T08:41:03.636Z,4976.00
2019-04-21T08:41:55.989Z,4988.00
2019-04-21T08:42:55.247Z,4996.00
2019-04-21T08:43:57.484Z,4996.00
2019-04-21T08:45:05.999Z,5016.00
2019-04-21T08:46:01.551Z,5008.00
2019-04-21T08:46:58.794Z,5020.00
2019-04-21T08:48:00.315Z,5028.00
2019-04-21T08:49:02.614Z,5040.00
2019-04-21T08:50:01.597Z,5044.00
2019-04-21T08:51:06.342Z,5052.00
2019-04-21T08:52:06.766Z,5060.00
2019-04-21T08:54:04.198Z,5072.00
2019-04-21T08:54:57.018Z,5076.00
2019-04-21T08:56:04.362Z,5096.00
2019-04-21T08:57:06.386Z,5104.00
2019-04-21T08:58:10.982Z,5104.00
2019-04-21T08:59:04.075Z,5112.00
2019-04-21T09:00:01.593Z,5116.00
2019-04-21T09:01:00.895Z,5116.00
2019-04-21T09:02:18.171Z,5112.00
2019-04-21T09:03:02.398Z,5132.00
2019-04-21T09:04:59.225Z,5152.00
2019-04-21T09:05:57.104Z,5160.00
2019-04-21T09:07:05.333Z,5152.00
2019-04-21T09:07:59.826Z,5168.00
2019-04-21T09:08:58.225Z,5188.00
2019-04-21T09:09:57.769Z,5200.00
2019-04-21T09:10:59.586Z,5204.00
2019-04-21T09:12:01.348Z,5200.00
2019-04-21T09:12:53.117Z,5200.00
2019-04-21T09:13:54.414Z,5204.00
2019-04-21T09:14:54.213Z,5212.00
2019-04-21T09:15:52.500Z,5216.00
2019-04-21T09:16:53.721Z,5232.00
2019-04-21T09:17:48.948Z,5248.00
2019-04-21T09:18:52.758Z,5236.00
2019-04-21T09:19:57.928Z,5236.00
2019-04-21T09:20:59.996Z,5240.00
2019-04-21T09:21:54.565Z,5260.00
2019-04-21T09:22:54.235Z,5264.00
2019-04-21T09:23:58.914Z,5268.00
2019-04-21T09:25:00.266Z,5264.00
2019-04-21T09:25:57.403Z,5292.00
2019-04-21T09:26:57.313Z,5284.00
2019-04-21T09:27:55.023Z,5288.00
2019-04-21T09:28:48.026Z,5316.00
2019-04-21T09:29:44.720Z,5316.00
2019-04-21T09:30:43.437Z,5328.00
2019-04-21T09:31:41.810Z,5324.00
2019-04-21T09:32:38.595Z,5328.00
2019-04-21T09:33:44.768Z,5328.00
2019-04-21T09:34:43.483Z,5328.00
2019-04-21T09:35:40.665Z,5324.00
2019-04-21T09:36:45.944Z,5344.00
2019-04-21T09:37:47.357Z,5344.00
2019-04-21T09:38:41.875Z,5352.00
2019-04-21T09:39:40.997Z,5340.00
2019-04-21T09:40:43.927Z,5344.00
2019-04-21T09:41:39.485Z,5348.00
2019-04-21T09:42:44.302Z,5348.00
2019-04-21T09:43:43.597Z,5336.00
2019-04-21T09:44:42.146Z,5348.00
2019-04-21T09:45:37.793Z,5348.00
2019-04-21T09:46:45.319Z,5352.00
2019-04-21T09:47:45.057Z,5316.00
2019-04-21T09:48:49.847Z,5336.00
2019-04-21T09:49:39.531Z,5300.00
2019-04-21T09:50:38.293Z,5356.00
2019-04-21T09:51:37.170Z,5372.00
2019-04-21T09:52:45.165Z,5380.00
2019-04-21T09:53:41.117Z,5380.00
2019-04-21T09:54:48.165Z,5368.00
2019-04-21T09:55:46.370Z,5356.00
2019-04-21T09:56:46.584Z,5344.00
2019-04-21T09:57:44.812Z,5348.00
2019-04-21T09:58:42.417Z,5356.00
2019-04-21T09:59:40.677Z,5380.00
2019-04-21T10:00:46.454Z,5396.00
2019-04-21T10:01:50.323Z,5396.00
2019-04-21T10:02:49.810Z,5372.00
2019-04-21T10:03:44.225Z,5368.00
2019-04-21T10:04:38.021Z,5388.00
2019-04-21T10:05:36.511Z,5404.00
2019-04-21T10:06:37.315Z,5396.00
2019-04-21T10:07:41.676Z,5400.00
2019-04-21T10:08:38.556Z,5428.00
2019-04-21T10:09:37.578Z,5424.00
2019-04-21T10:10:36.526Z,5408.00
2019-04-21T10:11:37.519Z,5428.00
2019-04-21T10:12:37.342Z,5432.00
2019-04-21T10:13:36.445Z,5420.00
2019-04-21T10:14:36.611Z,5408.00
2019-04-21T10:15:37.542Z,5440.00
2019-04-21T10:16:36.488Z,5436.00
2019-04-21T10:17:37.479Z,5448.00
2019-04-21T10:18:36.481Z,5456.00
2019-04-21T10:19:36.355Z,5468.00
2019-04-21T10:20:36.412Z,5464.00
2019-04-21T10:21:36.339Z,5476.00
2019-04-21T10:22:37.226Z,5472.00
2019-04-21T10:23:36.348Z,5484.00
2019-04-21T10:24:36.343Z,5460.00
2019-04-21T10:25:36.813Z,5468.00
2019-04-21T10:26:37.485Z,5464.00
2019-04-21T10:27:36.990Z,5480.00
2019-04-21T10:28:37.264Z,5472.00
2019-04-21T10:29:41.476Z,5496.00
2019-04-21T10:30:38.509Z,5460.00
2019-04-21T10:31:36.793Z,5448.00
2019-04-21T10:32:36.455Z,5448.00
2019-04-21T10:33:36.735Z,5436.00
2019-04-21T10:34:37.138Z,5484.00
2019-04-21T10:35:37.048Z,5484.00
2019-04-21T10:36:37.219Z,5508.00
2019-04-21T10:37:47.315Z,5504.00
2019-04-21T10:38:44.275Z,5512.00
2019-04-21T10:39:37.792Z,5512.00
2019-04-21T10:40:37.374Z,5500.00
2019-04-21T10:41:37.252Z,5528.00
2019-04-21T10:42:37.270Z,5548.00
2019-04-21T10:43:37.222Z,5552.00
2019-04-21T10:44:36.856Z,5576.00
2019-04-21T10:45:36.961Z,5604.00
2019-04-21T10:46:36.913Z,5540.00
2019-04-21T10:47:36.842Z,5472.00
2019-04-21T10:48:37.870Z,5540.00
2019-04-21T10:49:36.879Z,5496.00
2019-04-21T10:50:37.047Z,5452.00
2019-04-21T10:51:37.003Z,5428.00
2019-04-21T10:52:37.301Z,5440.00
2019-04-21T10:53:36.800Z,5440.00
2019-04-21T10:55:01.298Z,5476.00
2019-04-21T10:55:50.557Z,5480.00
2019-04-21T10:56:41.757Z,5488.00
2019-04-21T10:57:38.015Z,5496.00
2019-04-21T10:58:36.308Z,5484.00
2019-04-21T10:59:37.165Z,5492.00
2019-04-21T11:00:36.447Z,5476.00
2019-04-21T11:01:36.886Z,5500.00
2019-04-21T11:02:36.857Z,5516.00
2019-04-21T11:03:36.963Z,5476.00
2019-04-21T11:04:38.550Z,5460.00
2019-04-21T11:05:36.768Z,5460.00
2019-04-21T11:06:36.853Z,5460.00
2019-04-21T11:07:52.238Z,5464.00
2019-04-21T11:08:41.494Z,5460.00
2019-04-21T11:09:38.003Z,5440.00
2019-04-21T11:10:36.053Z,5464.00
2019-04-21T11:11:35.783Z,5464.00
2019-04-21T11:12:37.751Z,5448.00
2019-04-21T11:13:36.936Z,5396.00
2019-04-21T11:14:35.780Z,5408.00
2019-04-21T11:15:36.971Z,5424.00
2019-04-21T11:16:37.119Z,5376.00
2019-04-21T11:17:36.452Z,5384.00
2019-04-21T11:18:35.978Z,5308.00
2019-04-21T11:19:36.783Z,5308.00
2019-04-21T11:20:35.689Z,5308.00
2019-04-21T11:21:36.692Z,5320.00
2019-04-21T11:22:36.920Z,5352.00
2019-04-21T11:23:35.677Z,5328.00
2019-04-21T11:24:36.732Z,5304.00
2019-04-21T11:25:35.897Z,5356.00
2019-04-21T11:26:35.959Z,5384.00
2019-04-21T11:27:35.618Z,5396.00
2019-04-21T11:28:36.763Z,5404.00
2019-04-21T11:29:35.588Z,5360.00
2019-04-21T11:30:35.880Z,5388.00
2019-04-21T11:31:36.870Z,5384.00
2019-04-21T11:32:36.989Z,5404.00
2019-04-21T11:33:35.710Z,5396.00
2019-04-21T11:34:36.692Z,5372.00
2019-04-21T11:35:35.521Z,5328.00
2019-04-21T11:36:35.513Z,5416.00
2019-04-21T11:37:35.521Z,5372.00
2019-04-21T11:38:51.340Z,5356.00
2019-04-21T11:39:46.016Z,5412.00
2019-04-21T11:40:37.961Z,5376.00
2019-04-21T11:41:35.979Z,5328.00
2019-04-21T11:42:35.651Z,5320.00
2019-04-21T11:43:35.434Z,5324.00
2019-04-21T11:44:35.439Z,5332.00
2019-04-21T11:45:36.659Z,5312.00
2019-04-21T11:46:36.317Z,5336.00
2019-04-21T11:47:36.403Z,5352.00
2019-04-21T11:48:36.532Z,5352.00
2019-04-21T11:49:35.393Z,5360.00
2019-04-21T11:50:35.362Z,5368.00
2019-04-21T11:51:35.367Z,5360.00
2019-04-21T11:52:36.825Z,5344.00
2019-04-21T11:53:35.350Z,5360.00
2019-04-21T11:54:35.325Z,5388.00
2019-04-21T11:55:39.778Z,5388.00
2019-04-21T11:56:37.007Z,5392.00
2019-04-21T11:57:40.235Z,5400.00
2019-04-21T11:58:36.294Z,5404.00
2019-04-21T11:59:35.619Z,5388.00
2019-04-21T12:00:35.826Z,5400.00
2019-04-21T12:01:35.959Z,5396.00
2019-04-21T12:02:35.345Z,5396.00
2019-04-21T12:03:35.797Z,5392.00
2019-04-21T12:04:35.742Z,5428.00
2019-04-21T12:05:35.319Z,5428.00
2019-04-21T12:06:41.578Z,5416.00
2019-04-21T12:07:37.507Z,5392.00
2019-04-21T12:08:42.307Z,5396.00
2019-04-21T12:09:37.532Z,5388.00
2019-04-21T12:10:35.524Z,5404.00
2019-04-21T12:11:35.666Z,5368.00
2019-04-21T12:12:35.145Z,5360.00
2019-04-21T12:13:36.217Z,5408.00
2019-04-21T12:14:36.304Z,5380.00
2019-04-21T12:15:35.085Z,5356.00
2019-04-21T12:16:35.252Z,5356.00
2019-04-21T12:17:36.155Z,5392.00
2019-04-21T12:18:35.077Z,5408.00
2019-04-21T12:19:35.070Z,5416.00
2019-04-21T12:20:35.548Z,5380.00
2019-04-21T12:21:49.151Z,5384.00
2019-04-21T12:22:37.313Z,5348.00
2019-04-21T12:23:36.415Z,5328.00
2019-04-21T12:24:36.810Z,5336.00
2019-04-21T12:25:34.976Z,5368.00
2019-04-21T12:26:35.966Z,5356.00
2019-04-21T12:27:36.124Z,5348.00
2019-04-21T12:28:34.943Z,5364.00
2019-04-21T12:29:35.582Z,5376.00
2019-04-21T12:30:35.726Z,5372.00
2019-04-21T12:31:35.868Z,5348.00
2019-04-21T12:32:36.025Z,5368.00
2019-04-21T12:33:36.233Z,5344.00
2019-04-21T12:34:35.962Z,5340.00
2019-04-21T12:35:35.575Z,5332.00
2019-04-21T12:36:35.806Z,5320.00
2019-04-21T12:37:35.119Z,5324.00
2019-04-21T12:38:42.557Z,5312.00
2019-04-21T12:39:36.897Z,5308.00
2019-04-21T12:40:34.835Z,5328.00
2019-04-21T12:41:36.204Z,5332.00
2019-04-21T12:42:37.621Z,5336.00
2019-04-21T12:43:34.912Z,5296.00
2019-04-21T12:44:34.767Z,5292.00
2019-04-21T12:45:35.943Z,5268.00
2019-04-21T12:46:35.918Z,5256.00
2019-04-21T12:47:34.735Z,5264.00
2019-04-21T12:48:35.833Z,5260.00
2019-04-21T12:49:35.901Z,5264.00
2019-04-21T12:50:35.942Z,5284.00
2019-04-21T12:51:35.613Z,5268.00
2019-04-21T12:52:35.714Z,5268.00
2019-04-21T12:53:35.905Z,5236.00
2019-04-21T12:54:35.486Z,5220.00
2019-04-21T12:55:37.385Z,5228.00
2019-04-21T12:56:35.798Z,5224.00
2019-04-21T12:57:35.133Z,5220.00
2019-04-21T12:58:35.264Z,5180.00
2019-04-21T12:59:36.304Z,5164.00
2019-04-21T13:00:34.587Z,5160.00
2019-04-21T13:01:34.988Z,5156.00
2019-04-21T13:02:35.769Z,5132.00
2019-04-21T13:03:34.557Z,5128.00
2019-04-21T13:04:35.781Z,5136.00
2019-04-21T13:05:35.771Z,5128.00
2019-04-21T13:06:34.529Z,5140.00
2019-04-21T13:07:35.419Z,5116.00
2019-04-21T13:08:48.428Z,5104.00
2019-04-21T13:09:36.111Z,5088.00
2019-04-21T13:10:34.505Z,5068.00
2019-04-21T13:11:35.077Z,5068.00
2019-04-21T13:12:35.250Z,5084.00
2019-04-21T13:13:35.632Z,5084.00
2019-04-21T13:14:35.770Z,5084.00
2019-04-21T13:15:35.575Z,5076.00
2019-04-21T13:16:34.413Z,5056.00
2019-04-21T13:17:35.365Z,5044.00
2019-04-21T13:18:35.329Z,5032.00
2019-04-21T13:19:35.583Z,5036.00
2019-04-21T13:20:34.370Z,5028.00
2019-04-21T13:21:34.391Z,5028.00
2019-04-21T13:22:34.376Z,5004.00